sensor_id;sensor_type;location;lat;lon;timestamp;temperature;humidity
47336;DHT22;33068;51.990;5.926;2023-06-14T00:01:14;18.70;71.90
47336;DHT22;33068;51.990;5.926;2023-06-14T00:03:41;18.70;71.90
47336;DHT22;33068;51.990;5.926;2023-06-14T00:06:10;18.70;71.90
47336;DHT22;33068;51.990;5.926;2023-06-14T00:08:37;18.60;72.10
47336;DHT22;33068;51.990;5.926;2023-06-14T00:11:04;18.60;72.50
47336;DHT22;33068;51.990;5.926;2023-06-14T00:13:31;18.60;72.50
47336;DHT22;33068;51.990;5.926;2023-06-14T00:15:58;18.50;72.40
47336;DHT22;33068;51.990;5.926;2023-06-14T00:18:25;18.60;72.40
47336;DHT22;33068;51.990;5.926;2023-06-14T00:20:55;18.60;72.60
47336;DHT22;33068;51.990;5.926;2023-06-14T00:23:24;18.50;72.70
47336;DHT22;33068;51.990;5.926;2023-06-14T00:25:51;18.50;72.90
47336;DHT22;33068;51.990;5.926;2023-06-14T00:28:18;18.50;73.20
47336;DHT22;33068;51.990;5.926;2023-06-14T00:30:46;18.40;73.30
47336;DHT22;33068;51.990;5.926;2023-06-14T00:33:13;18.40;73.30
47336;DHT22;33068;51.990;5.926;2023-06-14T00:35:43;18.30;73.70
47336;DHT22;33068;51.990;5.926;2023-06-14T00:38:10;18.30;73.50
47336;DHT22;33068;51.990;5.926;2023-06-14T00:40:41;18.30;73.60
47336;DHT22;33068;51.990;5.926;2023-06-14T00:43:08;18.30;73.70
47336;DHT22;33068;51.990;5.926;2023-06-14T00:45:36;18.20;74.40
47336;DHT22;33068;51.990;5.926;2023-06-14T00:48:03;18.10;75.00
47336;DHT22;33068;51.990;5.926;2023-06-14T00:50:31;18.10;75.60
47336;DHT22;33068;51.990;5.926;2023-06-14T00:52:59;18.10;74.90
47336;DHT22;33068;51.990;5.926;2023-06-14T00:55:27;18.10;74.80
47336;DHT22;33068;51.990;5.926;2023-06-14T00:57:56;18.00;75.20
47336;DHT22;33068;51.990;5.926;2023-06-14T01:00:24;18.00;75.60
47336;DHT22;33068;51.990;5.926;2023-06-14T01:02:54;18.00;75.10
47336;DHT22;33068;51.990;5.926;2023-06-14T01:05:23;18.00;75.00
47336;DHT22;33068;51.990;5.926;2023-06-14T01:08:02;17.90;75.90
47336;DHT22;33068;51.990;5.926;2023-06-14T01:10:40;17.90;75.40
47336;DHT22;33068;51.990;5.926;2023-06-14T01:13:18;17.90;75.60
47336;DHT22;33068;51.990;5.926;2023-06-14T01:15:47;17.90;75.60
47336;DHT22;33068;51.990;5.926;2023-06-14T01:18:14;17.80;75.70
47336;DHT22;33068;51.990;5.926;2023-06-14T01:20:44;17.80;75.70
47336;DHT22;33068;51.990;5.926;2023-06-14T01:23:14;17.80;76.40
47336;DHT22;33068;51.990;5.926;2023-06-14T01:25:42;17.80;76.10
47336;DHT22;33068;51.990;5.926;2023-06-14T01:28:11;17.70;76.40
47336;DHT22;33068;51.990;5.926;2023-06-14T01:30:40;17.60;76.60
47336;DHT22;33068;51.990;5.926;2023-06-14T01:33:12;17.60;76.60
47336;DHT22;33068;51.990;5.926;2023-06-14T01:35:41;17.60;76.70
47336;DHT22;33068;51.990;5.926;2023-06-14T01:38:08;17.60;76.70
47336;DHT22;33068;51.990;5.926;2023-06-14T01:40:38;17.50;77.20
47336;DHT22;33068;51.990;5.926;2023-06-14T01:43:06;17.50;76.90
47336;DHT22;33068;51.990;5.926;2023-06-14T01:45:34;17.40;77.10
47336;DHT22;33068;51.990;5.926;2023-06-14T01:48:03;17.40;77.20
47336;DHT22;33068;51.990;5.926;2023-06-14T01:50:31;17.40;77.30
47336;DHT22;33068;51.990;5.926;2023-06-14T01:52:58;17.30;78.00
47336;DHT22;33068;51.990;5.926;2023-06-14T01:55:26;17.30;77.80
47336;DHT22;33068;51.990;5.926;2023-06-14T01:57:54;17.30;77.40
47336;DHT22;33068;51.990;5.926;2023-06-14T02:00:21;17.30;77.50
47336;DHT22;33068;51.990;5.926;2023-06-14T02:02:52;17.30;77.70
47336;DHT22;33068;51.990;5.926;2023-06-14T02:05:19;17.20;78.10
47336;DHT22;33068;51.990;5.926;2023-06-14T02:07:48;17.20;78.50
47336;DHT22;33068;51.990;5.926;2023-06-14T02:10:17;17.20;78.10
47336;DHT22;33068;51.990;5.926;2023-06-14T02:12:44;17.20;78.70
47336;DHT22;33068;51.990;5.926;2023-06-14T02:15:13;17.20;78.40
47336;DHT22;33068;51.990;5.926;2023-06-14T02:17:44;17.10;78.50
47336;DHT22;33068;51.990;5.926;2023-06-14T02:20:13;17.10;79.00
47336;DHT22;33068;51.990;5.926;2023-06-14T02:22:40;17.00;78.80
47336;DHT22;33068;51.990;5.926;2023-06-14T02:25:08;17.00;78.60
47336;DHT22;33068;51.990;5.926;2023-06-14T02:27:35;17.00;78.80
47336;DHT22;33068;51.990;5.926;2023-06-14T02:30:04;16.90;79.30
47336;DHT22;33068;51.990;5.926;2023-06-14T02:32:33;16.90;79.20
47336;DHT22;33068;51.990;5.926;2023-06-14T02:35:01;16.90;80.10
47336;DHT22;33068;51.990;5.926;2023-06-14T02:37:28;16.90;79.20
47336;DHT22;33068;51.990;5.926;2023-06-14T02:39:55;16.90;79.40
47336;DHT22;33068;51.990;5.926;2023-06-14T02:42:23;16.90;79.70
47336;DHT22;33068;51.990;5.926;2023-06-14T02:44:50;16.90;79.10
47336;DHT22;33068;51.990;5.926;2023-06-14T02:47:17;16.90;79.50
47336;DHT22;33068;51.990;5.926;2023-06-14T02:49:46;16.80;79.50
47336;DHT22;33068;51.990;5.926;2023-06-14T02:52:14;16.80;80.10
47336;DHT22;33068;51.990;5.926;2023-06-14T02:54:41;16.80;79.60
47336;DHT22;33068;51.990;5.926;2023-06-14T02:57:09;16.80;79.90
47336;DHT22;33068;51.990;5.926;2023-06-14T02:59:37;16.80;79.50
47336;DHT22;33068;51.990;5.926;2023-06-14T03:02:05;16.80;79.80
47336;DHT22;33068;51.990;5.926;2023-06-14T03:04:33;16.80;80.40
47336;DHT22;33068;51.990;5.926;2023-06-14T03:07:06;16.70;79.90
47336;DHT22;33068;51.990;5.926;2023-06-14T03:09:35;16.70;79.80
47336;DHT22;33068;51.990;5.926;2023-06-14T03:12:04;16.70;80.00
47336;DHT22;33068;51.990;5.926;2023-06-14T03:14:33;16.70;80.30
47336;DHT22;33068;51.990;5.926;2023-06-14T03:17:00;16.70;80.20
47336;DHT22;33068;51.990;5.926;2023-06-14T03:19:29;16.60;80.50
47336;DHT22;33068;51.990;5.926;2023-06-14T03:21:57;16.60;80.70
47336;DHT22;33068;51.990;5.926;2023-06-14T03:24:27;16.60;80.90
47336;DHT22;33068;51.990;5.926;2023-06-14T03:26:57;16.50;81.40
47336;DHT22;33068;51.990;5.926;2023-06-14T03:29:26;16.50;81.70
47336;DHT22;33068;51.990;5.926;2023-06-14T03:31:57;16.40;82.10
47336;DHT22;33068;51.990;5.926;2023-06-14T03:34:26;16.40;82.10
47336;DHT22;33068;51.990;5.926;2023-06-14T03:36:54;16.30;82.40
47336;DHT22;33068;51.990;5.926;2023-06-14T03:39:22;16.30;82.70
47336;DHT22;33068;51.990;5.926;2023-06-14T03:41:50;16.30;82.80
47336;DHT22;33068;51.990;5.926;2023-06-14T03:44:18;16.30;82.50
47336;DHT22;33068;51.990;5.926;2023-06-14T03:46:45;16.30;82.40
47336;DHT22;33068;51.990;5.926;2023-06-14T03:49:14;16.30;82.60
47336;DHT22;33068;51.990;5.926;2023-06-14T03:51:43;16.30;82.80
47336;DHT22;33068;51.990;5.926;2023-06-14T03:54:12;16.30;83.50
47336;DHT22;33068;51.990;5.926;2023-06-14T03:56:39;16.20;83.20
47336;DHT22;33068;51.990;5.926;2023-06-14T03:59:10;16.30;83.30
47336;DHT22;33068;51.990;5.926;2023-06-14T04:01:38;16.30;83.50
47336;DHT22;33068;51.990;5.926;2023-06-14T04:04:13;16.30;83.30
47336;DHT22;33068;51.990;5.926;2023-06-14T04:06:42;16.30;83.30
47336;DHT22;33068;51.990;5.926;2023-06-14T04:09:10;16.20;84.00
47336;DHT22;33068;51.990;5.926;2023-06-14T04:11:37;16.20;83.40
47336;DHT22;33068;51.990;5.926;2023-06-14T04:14:05;16.20;83.80
47336;DHT22;33068;51.990;5.926;2023-06-14T04:16:34;16.20;84.10
47336;DHT22;33068;51.990;5.926;2023-06-14T04:19:01;16.30;83.50
47336;DHT22;33068;51.990;5.926;2023-06-14T04:21:28;16.30;84.10
47336;DHT22;33068;51.990;5.926;2023-06-14T04:23:57;16.30;83.80
47336;DHT22;33068;51.990;5.926;2023-06-14T04:26:28;16.30;84.40
47336;DHT22;33068;51.990;5.926;2023-06-14T04:28:59;16.30;84.20
47336;DHT22;33068;51.990;5.926;2023-06-14T04:31:29;16.30;84.00
47336;DHT22;33068;51.990;5.926;2023-06-14T04:34:02;16.30;85.30
47336;DHT22;33068;51.990;5.926;2023-06-14T04:36:32;16.30;84.40
47336;DHT22;33068;51.990;5.926;2023-06-14T04:39:00;16.40;85.10
47336;DHT22;33068;51.990;5.926;2023-06-14T04:41:30;16.40;85.50
47336;DHT22;33068;51.990;5.926;2023-06-14T04:44:00;16.40;84.40
47336;DHT22;33068;51.990;5.926;2023-06-14T04:46:30;16.40;84.60
47336;DHT22;33068;51.990;5.926;2023-06-14T04:48:58;16.50;84.50
47336;DHT22;33068;51.990;5.926;2023-06-14T04:51:30;16.50;85.00
47336;DHT22;33068;51.990;5.926;2023-06-14T04:53:59;16.50;84.90
47336;DHT22;33068;51.990;5.926;2023-06-14T04:56:27;16.60;84.60
47336;DHT22;33068;51.990;5.926;2023-06-14T04:58:56;16.60;85.50
47336;DHT22;33068;51.990;5.926;2023-06-14T05:01:23;16.70;84.60
47336;DHT22;33068;51.990;5.926;2023-06-14T05:03:50;16.70;84.50
47336;DHT22;33068;51.990;5.926;2023-06-14T05:06:18;16.70;84.20
47336;DHT22;33068;51.990;5.926;2023-06-14T05:08:46;16.80;84.50
47336;DHT22;33068;51.990;5.926;2023-06-14T05:11:13;16.90;85.10
47336;DHT22;33068;51.990;5.926;2023-06-14T05:13:42;16.90;84.50
47336;DHT22;33068;51.990;5.926;2023-06-14T05:16:12;16.90;84.00
47336;DHT22;33068;51.990;5.926;2023-06-14T05:18:41;17.00;83.60
47336;DHT22;33068;51.990;5.926;2023-06-14T05:21:08;17.10;84.60
47336;DHT22;33068;51.990;5.926;2023-06-14T05:23:37;17.10;84.20
47336;DHT22;33068;51.990;5.926;2023-06-14T05:26:05;17.20;83.80
47336;DHT22;33068;51.990;5.926;2023-06-14T05:28:32;17.20;83.70
47336;DHT22;33068;51.990;5.926;2023-06-14T05:30:59;17.30;84.60
47336;DHT22;33068;51.990;5.926;2023-06-14T05:33:26;17.50;82.60
47336;DHT22;33068;51.990;5.926;2023-06-14T05:35:54;17.60;83.10
47336;DHT22;33068;51.990;5.926;2023-06-14T05:38:21;17.70;82.80
47336;DHT22;33068;51.990;5.926;2023-06-14T05:40:48;17.70;83.30
47336;DHT22;33068;51.990;5.926;2023-06-14T05:43:16;17.80;82.30
47336;DHT22;33068;51.990;5.926;2023-06-14T05:45:44;17.90;82.80
47336;DHT22;33068;51.990;5.926;2023-06-14T05:48:11;17.90;82.50
47336;DHT22;33068;51.990;5.926;2023-06-14T05:50:38;18.00;82.80
47336;DHT22;33068;51.990;5.926;2023-06-14T05:53:05;18.10;82.70
47336;DHT22;33068;51.990;5.926;2023-06-14T05:55:32;18.20;81.80
47336;DHT22;33068;51.990;5.926;2023-06-14T05:57:59;18.20;82.30
47336;DHT22;33068;51.990;5.926;2023-06-14T06:00:27;18.30;81.60
47336;DHT22;33068;51.990;5.926;2023-06-14T06:02:54;18.40;81.40
47336;DHT22;33068;51.990;5.926;2023-06-14T06:05:23;18.60;80.60
47336;DHT22;33068;51.990;5.926;2023-06-14T06:07:50;18.60;80.90
47336;DHT22;33068;51.990;5.926;2023-06-14T06:10:18;18.70;80.70
47336;DHT22;33068;51.990;5.926;2023-06-14T06:12:45;18.70;80.80
47336;DHT22;33068;51.990;5.926;2023-06-14T06:15:13;18.80;81.10
47336;DHT22;33068;51.990;5.926;2023-06-14T06:17:41;18.90;80.50
47336;DHT22;33068;51.990;5.926;2023-06-14T06:20:09;18.90;80.30
47336;DHT22;33068;51.990;5.926;2023-06-14T06:22:37;19.10;81.10
47336;DHT22;33068;51.990;5.926;2023-06-14T06:25:05;19.20;79.70
47336;DHT22;33068;51.990;5.926;2023-06-14T06:27:33;19.30;79.60
47336;DHT22;33068;51.990;5.926;2023-06-14T06:30:01;19.30;79.30
47336;DHT22;33068;51.990;5.926;2023-06-14T06:32:28;19.40;78.00
47336;DHT22;33068;51.990;5.926;2023-06-14T06:34:57;19.50;79.70
47336;DHT22;33068;51.990;5.926;2023-06-14T06:37:25;19.60;79.30
47336;DHT22;33068;51.990;5.926;2023-06-14T06:39:52;19.70;77.60
47336;DHT22;33068;51.990;5.926;2023-06-14T06:42:19;19.80;79.10
47336;DHT22;33068;51.990;5.926;2023-06-14T06:44:49;19.90;79.70
47336;DHT22;33068;51.990;5.926;2023-06-14T06:47:16;20.00;77.30
47336;DHT22;33068;51.990;5.926;2023-06-14T06:49:43;20.10;78.60
47336;DHT22;33068;51.990;5.926;2023-06-14T06:52:12;20.30;78.10
47336;DHT22;33068;51.990;5.926;2023-06-14T06:54:39;20.40;78.20
47336;DHT22;33068;51.990;5.926;2023-06-14T06:57:06;20.50;77.00
47336;DHT22;33068;51.990;5.926;2023-06-14T06:59:34;20.60;76.40
47336;DHT22;33068;51.990;5.926;2023-06-14T07:02:01;20.60;75.90
47336;DHT22;33068;51.990;5.926;2023-06-14T07:04:28;20.80;77.40
47336;DHT22;33068;51.990;5.926;2023-06-14T07:06:55;20.80;75.90
47336;DHT22;33068;51.990;5.926;2023-06-14T07:09:23;21.00;75.10
47336;DHT22;33068;51.990;5.926;2023-06-14T07:11:52;21.00;75.10
47336;DHT22;33068;51.990;5.926;2023-06-14T07:14:19;20.90;75.60
47336;DHT22;33068;51.990;5.926;2023-06-14T07:16:48;20.90;75.40
47336;DHT22;33068;51.990;5.926;2023-06-14T07:19:16;20.90;75.90
47336;DHT22;33068;51.990;5.926;2023-06-14T07:21:43;21.10;74.20
47336;DHT22;33068;51.990;5.926;2023-06-14T07:24:10;21.20;75.20
47336;DHT22;33068;51.990;5.926;2023-06-14T07:26:38;21.30;75.80
47336;DHT22;33068;51.990;5.926;2023-06-14T07:29:05;21.50;74.60
47336;DHT22;33068;51.990;5.926;2023-06-14T07:31:33;21.50;74.10
47336;DHT22;33068;51.990;5.926;2023-06-14T07:34:00;21.60;73.40
47336;DHT22;33068;51.990;5.926;2023-06-14T07:36:27;21.80;73.60
47336;DHT22;33068;51.990;5.926;2023-06-14T07:38:54;21.80;73.10
47336;DHT22;33068;51.990;5.926;2023-06-14T07:41:21;22.00;73.30
47336;DHT22;33068;51.990;5.926;2023-06-14T07:43:50;22.00;72.00
47336;DHT22;33068;51.990;5.926;2023-06-14T07:46:17;22.00;72.00
47336;DHT22;33068;51.990;5.926;2023-06-14T07:48:44;22.10;71.70
47336;DHT22;33068;51.990;5.926;2023-06-14T07:51:12;22.30;71.80
47336;DHT22;33068;51.990;5.926;2023-06-14T07:53:39;22.40;71.70
47336;DHT22;33068;51.990;5.926;2023-06-14T07:56:07;22.60;72.10
47336;DHT22;33068;51.990;5.926;2023-06-14T07:58:34;22.90;69.60
47336;DHT22;33068;51.990;5.926;2023-06-14T08:01:03;23.20;70.80
47336;DHT22;33068;51.990;5.926;2023-06-14T08:03:32;23.40;70.90
47336;DHT22;33068;51.990;5.926;2023-06-14T08:05:59;23.60;69.30
47336;DHT22;33068;51.990;5.926;2023-06-14T08:08:26;24.00;68.30
47336;DHT22;33068;51.990;5.926;2023-06-14T08:10:53;24.30;66.20
47336;DHT22;33068;51.990;5.926;2023-06-14T08:13:20;24.70;66.00
47336;DHT22;33068;51.990;5.926;2023-06-14T08:15:47;25.30;64.70
47336;DHT22;33068;51.990;5.926;2023-06-14T08:18:16;25.30;63.10
47336;DHT22;33068;51.990;5.926;2023-06-14T08:20:43;25.50;64.20
47336;DHT22;33068;51.990;5.926;2023-06-14T08:23:10;25.80;64.80
47336;DHT22;33068;51.990;5.926;2023-06-14T08:25:37;26.10;64.60
47336;DHT22;33068;51.990;5.926;2023-06-14T08:28:04;26.10;62.70
47336;DHT22;33068;51.990;5.926;2023-06-14T08:30:32;25.70;62.20
47336;DHT22;33068;51.990;5.926;2023-06-14T08:32:59;25.40;63.00
47336;DHT22;33068;51.990;5.926;2023-06-14T08:35:28;25.40;63.90
47336;DHT22;33068;51.990;5.926;2023-06-14T08:37:55;25.60;64.40
47336;DHT22;33068;51.990;5.926;2023-06-14T08:40:23;25.90;63.90
47336;DHT22;33068;51.990;5.926;2023-06-14T08:42:52;25.80;63.60
47336;DHT22;33068;51.990;5.926;2023-06-14T08:45:19;25.90;63.60
47336;DHT22;33068;51.990;5.926;2023-06-14T08:47:47;26.10;62.50
47336;DHT22;33068;51.990;5.926;2023-06-14T08:50:20;25.70;60.60
47336;DHT22;33068;51.990;5.926;2023-06-14T08:52:53;25.60;62.50
47336;DHT22;33068;51.990;5.926;2023-06-14T08:55:24;25.90;63.30
47336;DHT22;33068;51.990;5.926;2023-06-14T08:57:55;26.10;62.30
47336;DHT22;33068;51.990;5.926;2023-06-14T09:00:24;26.00;62.80
47336;DHT22;33068;51.990;5.926;2023-06-14T09:02:51;26.00;63.10
47336;DHT22;33068;51.990;5.926;2023-06-14T09:05:23;26.40;62.60
47336;DHT22;33068;51.990;5.926;2023-06-14T09:07:52;26.40;62.50
47336;DHT22;33068;51.990;5.926;2023-06-14T09:10:21;26.40;62.70
47336;DHT22;33068;51.990;5.926;2023-06-14T09:12:48;26.10;62.40
47336;DHT22;33068;51.990;5.926;2023-06-14T09:15:15;25.90;60.60
47336;DHT22;33068;51.990;5.926;2023-06-14T09:17:42;25.80;62.10
47336;DHT22;33068;51.990;5.926;2023-06-14T09:20:10;25.80;61.40
47336;DHT22;33068;51.990;5.926;2023-06-14T09:22:39;25.90;62.80
47336;DHT22;33068;51.990;5.926;2023-06-14T09:25:09;26.00;63.50
47336;DHT22;33068;51.990;5.926;2023-06-14T09:27:37;25.90;63.30
47336;DHT22;33068;51.990;5.926;2023-06-14T09:30:08;25.90;64.50
47336;DHT22;33068;51.990;5.926;2023-06-14T09:32:37;26.20;63.50
47336;DHT22;33068;51.990;5.926;2023-06-14T09:35:05;26.10;62.70
47336;DHT22;33068;51.990;5.926;2023-06-14T09:37:34;26.20;63.30
47336;DHT22;33068;51.990;5.926;2023-06-14T09:40:01;26.20;63.40
47336;DHT22;33068;51.990;5.926;2023-06-14T09:42:31;26.20;63.10
47336;DHT22;33068;51.990;5.926;2023-06-14T09:45:03;26.20;62.40
47336;DHT22;33068;51.990;5.926;2023-06-14T09:47:30;26.50;62.80
47336;DHT22;33068;51.990;5.926;2023-06-14T09:49:57;26.60;62.50
47336;DHT22;33068;51.990;5.926;2023-06-14T09:52:27;26.80;60.30
47336;DHT22;33068;51.990;5.926;2023-06-14T09:54:56;27.30;60.00
47336;DHT22;33068;51.990;5.926;2023-06-14T09:57:27;27.00;60.30
47336;DHT22;33068;51.990;5.926;2023-06-14T09:59:59;26.50;58.60
47336;DHT22;33068;51.990;5.926;2023-06-14T10:02:38;26.60;60.00
47336;DHT22;33068;51.990;5.926;2023-06-14T10:05:09;26.60;60.40
47336;DHT22;33068;51.990;5.926;2023-06-14T10:07:40;26.80;60.40
47336;DHT22;33068;51.990;5.926;2023-06-14T10:10:09;26.90;61.30
47336;DHT22;33068;51.990;5.926;2023-06-14T10:12:36;26.80;60.90
47336;DHT22;33068;51.990;5.926;2023-06-14T10:15:07;27.00;62.00
47336;DHT22;33068;51.990;5.926;2023-06-14T10:17:41;26.90;62.00
47336;DHT22;33068;51.990;5.926;2023-06-14T10:20:18;27.00;60.50
47336;DHT22;33068;51.990;5.926;2023-06-14T10:22:51;27.00;61.20
47336;DHT22;33068;51.990;5.926;2023-06-14T10:25:28;26.90;62.90
47336;DHT22;33068;51.990;5.926;2023-06-14T10:28:14;26.80;60.60
47336;DHT22;33068;51.990;5.926;2023-06-14T10:31:04;26.90;60.90
47336;DHT22;33068;51.990;5.926;2023-06-14T10:33:32;27.40;59.70
47336;DHT22;33068;51.990;5.926;2023-06-14T10:36:10;27.40;60.20
47336;DHT22;33068;51.990;5.926;2023-06-14T10:38:57;27.10;60.30
47336;DHT22;33068;51.990;5.926;2023-06-14T10:41:26;26.90;60.30
47336;DHT22;33068;51.990;5.926;2023-06-14T10:46:54;26.40;60.30
47336;DHT22;33068;51.990;5.926;2023-06-14T10:49:39;26.50;60.00
47336;DHT22;33068;51.990;5.926;2023-06-14T10:52:10;26.40;60.50
47336;DHT22;33068;51.990;5.926;2023-06-14T10:55:00;26.50;59.90
47336;DHT22;33068;51.990;5.926;2023-06-14T10:57:28;26.80;59.10
47336;DHT22;33068;51.990;5.926;2023-06-14T10:59:57;26.70;59.90
47336;DHT22;33068;51.990;5.926;2023-06-14T11:02:48;26.70;59.80
47336;DHT22;33068;51.990;5.926;2023-06-14T11:05:24;26.60;59.60
47336;DHT22;33068;51.990;5.926;2023-06-14T11:08:04;26.70;60.10
47336;DHT22;33068;51.990;5.926;2023-06-14T11:10:37;26.90;59.70
47336;DHT22;33068;51.990;5.926;2023-06-14T11:13:05;26.60;60.70
47336;DHT22;33068;51.990;5.926;2023-06-14T11:15:34;26.80;59.50
47336;DHT22;33068;51.990;5.926;2023-06-14T11:18:04;27.00;60.30
47336;DHT22;33068;51.990;5.926;2023-06-14T11:20:33;26.80;60.10
47336;DHT22;33068;51.990;5.926;2023-06-14T11:23:01;26.80;59.90
47336;DHT22;33068;51.990;5.926;2023-06-14T11:25:29;27.10;60.20
47336;DHT22;33068;51.990;5.926;2023-06-14T11:27:56;27.20;61.20
47336;DHT22;33068;51.990;5.926;2023-06-14T11:30:24;27.10;58.20
47336;DHT22;33068;51.990;5.926;2023-06-14T11:32:53;26.80;60.20
47336;DHT22;33068;51.990;5.926;2023-06-14T11:35:23;26.80;58.50
47336;DHT22;33068;51.990;5.926;2023-06-14T11:37:53;26.80;60.00
47336;DHT22;33068;51.990;5.926;2023-06-14T11:40:23;26.70;60.30
47336;DHT22;33068;51.990;5.926;2023-06-14T11:42:58;26.90;61.40
47336;DHT22;33068;51.990;5.926;2023-06-14T11:45:25;27.10;61.30
47336;DHT22;33068;51.990;5.926;2023-06-14T11:47:54;27.20;60.20
47336;DHT22;33068;51.990;5.926;2023-06-14T11:50:25;27.20;61.10
47336;DHT22;33068;51.990;5.926;2023-06-14T11:52:53;27.10;59.80
47336;DHT22;33068;51.990;5.926;2023-06-14T11:55:25;27.30;59.70
47336;DHT22;33068;51.990;5.926;2023-06-14T11:57:54;27.30;61.30
47336;DHT22;33068;51.990;5.926;2023-06-14T12:00:24;26.80;62.10
47336;DHT22;33068;51.990;5.926;2023-06-14T12:02:53;26.80;61.90
47336;DHT22;33068;51.990;5.926;2023-06-14T12:05:22;27.20;59.70
47336;DHT22;33068;51.990;5.926;2023-06-14T12:07:50;27.40;59.40
47336;DHT22;33068;51.990;5.926;2023-06-14T12:10:19;27.60;58.30
47336;DHT22;33068;51.990;5.926;2023-06-14T12:12:46;27.50;59.70
47336;DHT22;33068;51.990;5.926;2023-06-14T12:15:13;27.30;59.90
47336;DHT22;33068;51.990;5.926;2023-06-14T12:17:42;27.00;59.00
47336;DHT22;33068;51.990;5.926;2023-06-14T12:20:11;27.30;60.30
47336;DHT22;33068;51.990;5.926;2023-06-14T12:22:46;27.50;60.00
47336;DHT22;33068;51.990;5.926;2023-06-14T12:25:27;27.40;59.70
47336;DHT22;33068;51.990;5.926;2023-06-14T12:27:54;27.20;59.80
47336;DHT22;33068;51.990;5.926;2023-06-14T12:30:22;27.10;59.60
47336;DHT22;33068;51.990;5.926;2023-06-14T12:32:49;27.10;60.40
47336;DHT22;33068;51.990;5.926;2023-06-14T12:35:17;27.10;61.00
47336;DHT22;33068;51.990;5.926;2023-06-14T12:37:45;27.20;59.50
47336;DHT22;33068;51.990;5.926;2023-06-14T12:40:12;27.30;61.80
47336;DHT22;33068;51.990;5.926;2023-06-14T12:42:41;27.10;60.70
47336;DHT22;33068;51.990;5.926;2023-06-14T12:45:09;27.00;61.40
47336;DHT22;33068;51.990;5.926;2023-06-14T12:47:37;27.10;62.50
47336;DHT22;33068;51.990;5.926;2023-06-14T12:50:04;27.20;62.10
47336;DHT22;33068;51.990;5.926;2023-06-14T12:52:32;27.40;59.90
47336;DHT22;33068;51.990;5.926;2023-06-14T12:55:02;27.20;61.60
47336;DHT22;33068;51.990;5.926;2023-06-14T12:57:29;27.40;60.30
47336;DHT22;33068;51.990;5.926;2023-06-14T13:00:00;27.20;62.00
47336;DHT22;33068;51.990;5.926;2023-06-14T13:02:27;27.50;61.40
47336;DHT22;33068;51.990;5.926;2023-06-14T13:04:54;27.70;61.20
47336;DHT22;33068;51.990;5.926;2023-06-14T13:07:24;27.50;59.40
47336;DHT22;33068;51.990;5.926;2023-06-14T13:09:51;27.60;59.80
47336;DHT22;33068;51.990;5.926;2023-06-14T13:12:18;27.40;59.20
47336;DHT22;33068;51.990;5.926;2023-06-14T13:14:45;27.50;59.70
47336;DHT22;33068;51.990;5.926;2023-06-14T13:17:14;27.40;60.70
47336;DHT22;33068;51.990;5.926;2023-06-14T13:19:41;27.60;60.60
47336;DHT22;33068;51.990;5.926;2023-06-14T13:22:08;27.90;59.10
47336;DHT22;33068;51.990;5.926;2023-06-14T13:24:36;27.80;59.50
47336;DHT22;33068;51.990;5.926;2023-06-14T13:27:03;28.00;58.40
47336;DHT22;33068;51.990;5.926;2023-06-14T13:29:31;28.20;59.20
47336;DHT22;33068;51.990;5.926;2023-06-14T13:31:59;28.30;60.30
47336;DHT22;33068;51.990;5.926;2023-06-14T13:34:27;28.50;57.00
47336;DHT22;33068;51.990;5.926;2023-06-14T13:36:55;28.50;57.60
47336;DHT22;33068;51.990;5.926;2023-06-14T13:39:24;28.10;57.80
47336;DHT22;33068;51.990;5.926;2023-06-14T13:41:51;28.30;58.60
47336;DHT22;33068;51.990;5.926;2023-06-14T13:44:18;28.20;58.30
47336;DHT22;33068;51.990;5.926;2023-06-14T13:46:47;28.00;59.90
47336;DHT22;33068;51.990;5.926;2023-06-14T13:49:14;28.10;59.00
47336;DHT22;33068;51.990;5.926;2023-06-14T13:51:42;28.20;60.10
47336;DHT22;33068;51.990;5.926;2023-06-14T13:54:12;28.10;59.30
47336;DHT22;33068;51.990;5.926;2023-06-14T13:56:40;28.80;58.70
47336;DHT22;33068;51.990;5.926;2023-06-14T13:59:07;28.50;57.80
47336;DHT22;33068;51.990;5.926;2023-06-14T14:01:35;28.30;58.40
47336;DHT22;33068;51.990;5.926;2023-06-14T14:04:02;28.50;57.70
47336;DHT22;33068;51.990;5.926;2023-06-14T14:06:29;28.60;59.00
47336;DHT22;33068;51.990;5.926;2023-06-14T14:08:57;28.60;57.90
47336;DHT22;33068;51.990;5.926;2023-06-14T14:11:24;28.80;59.20
47336;DHT22;33068;51.990;5.926;2023-06-14T14:13:51;28.80;58.40
47336;DHT22;33068;51.990;5.926;2023-06-14T14:16:19;28.90;59.30
47336;DHT22;33068;51.990;5.926;2023-06-14T14:18:46;28.80;59.90
47336;DHT22;33068;51.990;5.926;2023-06-14T14:21:13;29.10;59.50
47336;DHT22;33068;51.990;5.926;2023-06-14T14:23:40;29.20;58.10
47336;DHT22;33068;51.990;5.926;2023-06-14T14:26:08;29.10;57.00
47336;DHT22;33068;51.990;5.926;2023-06-14T14:28:35;29.20;57.10
47336;DHT22;33068;51.990;5.926;2023-06-14T14:31:02;29.10;56.70
47336;DHT22;33068;51.990;5.926;2023-06-14T14:33:29;29.00;56.60
47336;DHT22;33068;51.990;5.926;2023-06-14T14:35:56;29.30;58.60
47336;DHT22;33068;51.990;5.926;2023-06-14T14:38:25;29.20;56.30
47336;DHT22;33068;51.990;5.926;2023-06-14T14:40:52;28.80;56.70
47336;DHT22;33068;51.990;5.926;2023-06-14T14:43:21;28.80;57.50
47336;DHT22;33068;51.990;5.926;2023-06-14T14:45:48;29.30;58.20
47336;DHT22;33068;51.990;5.926;2023-06-14T14:48:15;29.60;57.20
47336;DHT22;33068;51.990;5.926;2023-06-14T14:50:42;30.00;57.10
47336;DHT22;33068;51.990;5.926;2023-06-14T14:53:09;30.10;56.50
47336;DHT22;33068;51.990;5.926;2023-06-14T14:55:36;29.70;56.90
47336;DHT22;33068;51.990;5.926;2023-06-14T14:58:04;29.20;57.10
47336;DHT22;33068;51.990;5.926;2023-06-14T15:00:33;28.50;57.20
47336;DHT22;33068;51.990;5.926;2023-06-14T15:03:01;28.90;58.80
47336;DHT22;33068;51.990;5.926;2023-06-14T15:05:28;29.20;56.50
47336;DHT22;33068;51.990;5.926;2023-06-14T15:07:55;29.30;56.00
47336;DHT22;33068;51.990;5.926;2023-06-14T15:10:22;29.30;56.30
47336;DHT22;33068;51.990;5.926;2023-06-14T15:12:49;29.30;56.50
47336;DHT22;33068;51.990;5.926;2023-06-14T15:15:17;29.70;57.70
47336;DHT22;33068;51.990;5.926;2023-06-14T15:17:45;29.70;55.70
47336;DHT22;33068;51.990;5.926;2023-06-14T15:20:12;29.50;56.50
47336;DHT22;33068;51.990;5.926;2023-06-14T15:22:40;29.00;57.30
47336;DHT22;33068;51.990;5.926;2023-06-14T15:25:07;29.00;57.30
47336;DHT22;33068;51.990;5.926;2023-06-14T15:27:34;29.20;57.20
47336;DHT22;33068;51.990;5.926;2023-06-14T15:30:02;29.70;57.70
47336;DHT22;33068;51.990;5.926;2023-06-14T15:32:30;29.90;57.00
47336;DHT22;33068;51.990;5.926;2023-06-14T15:34:58;30.20;57.10
47336;DHT22;33068;51.990;5.926;2023-06-14T15:37:25;30.40;56.20
47336;DHT22;33068;51.990;5.926;2023-06-14T15:39:52;29.70;56.80
47336;DHT22;33068;51.990;5.926;2023-06-14T15:42:19;29.50;56.40